Time;durP1;ratioP1;P1;durP2;ratioP2;P2;SDS_P1;SDS_P2;PMS_P1;PMS_P2;Temp;Humidity;BMP_temperature;BMP_pressure;BME280_temperature;BME280_humidity;BME280_pressure;Samples;Min_cycle;Max_cycle;Signal;HPM_P1;HPM_P2
2022/10/22 00:04:32;;;;;;;5.25;4.20;;;;;;;5.77;81.03;101470.72;10453377;28;20125;-68
2022/10/22 00:09:33;;;;;;;7.05;5.22;;;;;;;6.23;80.69;101567.69;10453983;28;20132;-68
2022/10/22 00:14:34;;;;;;;7.80;5.18;;;;;;;6.10;80.87;101572.16;10453020;28;20563;-69
2022/10/22 00:19:35;;;;;;;8.25;4.88;;;;;;;6.16;81.16;101569.94;10453332;28;20410;-68
2022/10/22 00:24:37;;;;;;;5.88;4.93;;;;;;;6.06;81.16;101583.88;10452599;28;20045;-68
2022/10/22 00:29:38;;;;;;;6.57;5.18;;;;;;;6.00;81.35;101571.97;10456912;28;20057;-68
2022/10/22 00:34:39;;;;;;;7.03;5.47;;;;;;;5.84;82.13;101548.44;10459974;28;20040;-68
2022/10/22 00:39:40;;;;;;;9.60;5.55;;;;;;;5.46;82.41;101498.41;10460581;28;20029;-68
2022/10/22 00:45:06;;;;;;;8.57;5.32;;;;;;;5.99;84.20;101583.47;10459535;28;20511;-68
2022/10/22 00:50:13;;;;;;;6.47;4.90;;;;;;;5.83;83.28;101580.19;10460070;28;20039;-68
2022/10/22 00:55:14;;;;;;;8.50;5.90;;;;;;;5.78;82.86;101591.06;10470640;28;20040;-68
2022/10/22 01:00:16;;;;;;;9.23;6.20;;;;;;;5.51;82.92;101556.06;10459469;28;20049;-68
2022/10/22 01:05:17;;;;;;;6.88;5.53;;;;;;;5.48;83.20;101568.50;10460014;28;20045;-68
2022/10/22 01:10:23;;;;;;;7.10;6.13;;;;;;;5.56;83.18;101585.56;10459643;28;20127;-68
2022/10/22 01:16:02;;;;;;;9.00;5.82;;;;;;;5.53;84.36;101601.59;10458555;28;20401;-67
2022/10/22 01:21:03;;;;;;;17.52;6.18;;;;;;;5.52;83.89;101602.56;10448864;28;20123;-68
2022/10/22 01:26:27;;;;;;;7.85;6.28;;;;;;;5.31;85.10;101567.97;10458777;28;20124;-67
2022/10/22 01:31:34;;;;;;;7.43;6.13;;;;;;;5.35;84.36;101580.81;10457871;28;20064;-68
2022/10/22 01:36:37;;;;;;;9.07;6.13;;;;;;;5.38;84.34;101596.41;10458399;28;20045;-68
2022/10/22 01:41:38;;;;;;;19.38;6.18;;;;;;;5.35;84.07;101617.69;10456661;28;20135;-68
2022/10/22 01:46:39;;;;;;;7.00;6.18;;;;;;;5.32;84.56;101627.59;10457716;28;20485;-68
2022/10/22 01:51:52;;;;;;;9.75;6.57;;;;;;;5.28;84.64;101632.25;10457095;28;20120;-68
2022/10/22 01:57:09;;;;;;;9.02;6.30;;;;;;;5.18;85.89;101625.91;10456879;28;20120;-68
2022/10/22 02:02:28;;;;;;;7.75;5.85;;;;;;;5.19;86.10;101643.38;10455847;28;20033;-68
2022/10/22 02:07:40;;;;;;;10.57;6.15;;;;;;;4.72;85.76;101570.97;10457030;28;20435;-68
2022/10/22 02:12:44;;;;;;;10.32;5.57;;;;;;;4.76;85.49;101596.19;10456816;28;20416;-68
2022/10/22 02:17:46;;;;;;;8.40;5.95;;;;;;;5.01;85.18;101656.81;10456099;28;20043;-68
2022/10/22 02:22:47;;;;;;;8.70;6.22;;;;;;;4.91;85.85;101665.44;10454460;28;20045;-68
2022/10/22 02:28:11;;;;;;;8.10;6.45;;;;;;;4.36;85.99;101593.44;10455605;28;20044;-68
2022/10/22 02:33:20;;;;;;;9.27;6.30;;;;;;;4.58;86.86;101651.69;10448682;28;20489;-67
2022/10/22 02:38:23;;;;;;;13.85;6.38;;;;;;;4.51;86.79;101660.88;10455172;28;20129;-68
2022/10/22 02:43:24;;;;;;;8.25;6.20;;;;;;;4.56;86.81;101692.19;10454847;28;20044;-68
2022/10/22 02:48:25;;;;;;;17.23;7.07;;;;;;;4.38;86.98;101677.56;10455426;28;20048;-68
2022/10/22 02:53:26;;;;;;;24.35;6.40;;;;;;;4.44;87.10;101696.44;10455330;28;20514;-68
2022/10/22 02:58:27;;;;;;;19.75;7.75;;;;;;;4.36;87.20;101711.84;10455084;28;20503;-68
2022/10/22 03:03:28;;;;;;;18.02;7.93;;;;;;;4.34;87.14;101713.75;10454667;28;20041;-68
2022/10/22 03:08:28;;;;;;;17.48;6.75;;;;;;;4.28;87.41;101719.38;10454755;28;20124;-68
2022/10/22 03:13:29;;;;;;;50.28;8.40;;;;;;;4.02;87.85;101692.88;10454510;28;20068;-69
2022/10/22 03:18:30;;;;;;;13.25;6.43;;;;;;;4.11;87.86;101718.59;10455068;28;20464;-68
2022/10/22 03:23:31;;;;;;;13.70;6.43;;;;;;;3.78;87.53;101673.31;10454313;28;20045;-68
2022/10/22 03:28:35;;;;;;;11.60;6.90;;;;;;;3.96;88.87;101719.53;10454390;28;20044;-68
2022/10/22 03:33:35;;;;;;;12.38;7.57;;;;;;;4.01;88.80;101712.22;10453025;28;20048;-68
2022/10/22 03:38:39;;;;;;;20.52;6.72;;;;;;;3.56;88.49;101643.06;10453997;28;20041;-68
2022/10/22 03:43:40;;;;;;;11.82;6.30;;;;;;;3.62;88.66;101654.94;10453954;28;20045;-68
2022/10/22 03:48:40;;;;;;;22.90;7.43;;;;;;;4.34;88.52;101722.47;10453377;28;20063;-68
2022/10/22 03:53:41;;;;;;;39.00;9.13;;;;;;;4.75;89.03;101734.00;10453582;28;20041;-68
2022/10/22 03:58:42;;;;;;;18.42;7.50;;;;;;;5.13;88.90;101739.47;10453469;28;20037;-68
2022/10/22 04:03:43;;;;;;;10.73;6.63;;;;;;;5.41;88.52;101742.94;10456803;28;20047;-68
2022/10/22 04:08:44;;;;;;;7.10;5.70;;;;;;;5.14;87.74;101659.47;10461034;28;20076;-68
2022/10/22 04:13:45;;;;;;;8.07;5.95;;;;;;;5.93;86.92;101750.91;10474947;28;20067;-68
2022/10/22 04:18:48;;;;;;;16.27;6.30;;;;;;;6.07;85.43;101750.00;10500855;28;20041;-69
2022/10/22 04:23:51;;;;;;;7.60;5.60;;;;;;;6.21;83.65;101759.59;10481788;28;20089;-67
2022/10/22 04:28:52;;;;;;;11.83;5.90;;;;;;;5.81;83.05;101679.66;10478643;28;20124;-68
2022/10/22 04:33:55;;;;;;;13.90;5.90;;;;;;;6.28;82.84;101746.81;10475102;28;20143;-68
2022/10/22 04:39:00;;;;;;;7.13;5.75;;;;;;;6.48;81.53;101774.47;10474489;28;20041;-68
2022/10/22 04:44:01;;;;;;;8.25;6.25;;;;;;;6.65;81.44;101784.72;10473048;28;20048;-69
2022/10/22 04:49:03;;;;;;;7.25;6.00;;;;;;;6.50;80.28;101722.44;10495606;28;20037;-68
2022/10/22 04:54:04;;;;;;;7.90;5.65;;;;;;;6.96;80.54;101772.81;10501121;28;20067;-68
2022/10/22 04:59:11;;;;;;;7.25;5.70;;;;;;;7.36;80.24;101795.53;10501011;28;20036;-67
2022/10/22 05:04:15;;;;;;;7.88;5.72;;;;;;;7.47;79.12;101772.63;10496275;28;20045;-68
2022/10/22 05:09:18;;;;;;;8.13;6.05;;;;;;;7.78;78.51;101791.53;10459223;28;20137;-69
2022/10/22 05:14:22;;;;;;;7.35;5.55;;;;;;;8.08;77.62;101814.84;10458861;28;20396;-68
2022/10/22 05:19:25;;;;;;;6.83;6.07;;;;;;;8.16;76.67;101785.13;10458324;28;20135;-68
2022/10/22 05:24:28;;;;;;;6.93;5.83;;;;;;;8.50;75.56;101827.63;10458989;28;20036;-68
2022/10/22 05:29:29;;;;;;;6.88;5.93;;;;;;;8.58;75.48;101825.19;10457822;28;20040;-68
2022/10/22 05:34:30;;;;;;;8.30;5.55;;;;;;;8.65;74.16;101837.03;10458449;28;20041;-68
2022/10/22 05:39:35;;;;;;;7.75;5.35;;;;;;;8.08;73.59;101729.31;10456818;28;20500;-68
2022/10/22 05:44:36;;;;;;;9.07;5.93;;;;;;;8.37;72.52;101761.47;10467839;28;20083;-69
2022/10/22 05:49:37;;;;;;;6.93;5.78;;;;;;;8.52;72.01;101762.94;10481011;28;20499;-68
2022/10/22 05:54:38;;;;;;;11.18;6.10;;;;;;;9.09;71.28;101824.72;10493565;28;20047;-69
2022/10/22 05:59:38;;;;;;;7.40;5.45;;;;;;;7.99;70.33;101620.56;10457338;28;20037;-69
2022/10/22 06:04:39;;;;;;;7.00;5.47;;;;;;;9.49;69.55;101835.63;10482431;28;20159;-68
2022/10/22 06:09:40;;;;;;;9.15;6.13;;;;;;;9.52;68.72;101823.94;10456272;28;20041;-68
2022/10/22 06:14:41;;;;;;;7.72;5.35;;;;;;;9.25;68.05;101758.91;10482926;28;20037;-68
2022/10/22 06:19:42;;;;;;;6.47;5.30;;;;;;;9.53;67.36;101799.09;10498091;28;20044;-68
2022/10/22 06:24:43;;;;;;;7.47;5.43;;;;;;;9.97;66.93;101829.94;10468939;28;20575;-68
2022/10/22 06:29:44;;;;;;;5.90;5.30;;;;;;;9.60;65.77;101734.81;10456587;28;20060;-69
2022/10/22 06:34:45;;;;;;;6.60;4.85;;;;;;;10.23;65.38;101809.16;10455800;28;20099;-69
2022/10/22 06:39:46;;;;;;;8.88;4.90;;;;;;;9.71;64.01;101666.72;10456120;28;20102;-69
2022/10/22 06:44:46;;;;;;;4.93;4.30;;;;;;;10.63;63.13;101778.34;10454775;28;20037;-69
2022/10/22 06:49:48;;;;;;;5.57;4.63;;;;;;;10.73;62.32;101797.84;10454519;28;20143;-69
2022/10/22 06:54:49;;;;;;;8.73;5.75;;;;;;;10.22;62.38;101713.66;10455045;28;20468;-69
2022/10/22 06:59:50;;;;;;;12.82;5.63;;;;;;;9.91;61.79;101641.13;10455739;28;20073;-69
2022/10/22 07:04:51;;;;;;;12.10;4.93;;;;;;;10.56;61.53;101702.78;10455521;28;20056;-69
2022/10/22 07:09:51;;;;;;;6.28;4.55;;;;;;;11.12;60.64;101792.66;10454814;28;20094;-69
2022/10/22 07:14:52;;;;;;;6.07;4.75;;;;;;;10.92;60.24;101781.97;10454400;28;20037;-69
2022/10/22 07:19:53;;;;;;;5.60;4.05;;;;;;;10.79;59.84;101728.19;10454031;28;20037;-69
2022/10/22 07:24:54;;;;;;;6.25;4.68;;;;;;;11.10;59.46;101765.38;10452717;28;20127;-69
2022/10/22 07:29:54;;;;;;;13.70;8.88;;;;;;;11.51;59.79;101766.09;10453661;28;20057;-69
2022/10/22 07:34:55;;;;;;;5.85;4.40;;;;;;;11.08;58.54;101693.69;10453628;28;20122;-69
2022/10/22 07:39:56;;;;;;;8.57;4.78;;;;;;;11.66;59.01;101765.53;10460660;28;20071;-70
2022/10/22 07:44:57;;;;;;;6.30;4.50;;;;;;;11.77;58.66;101775.22;10462870;28;20045;-69
2022/10/22 07:49:57;;;;;;;6.57;4.57;;;;;;;11.73;58.25;101723.25;10461757;28;20170;-69
2022/10/22 07:54:58;;;;;;;6.05;4.20;;;;;;;11.96;57.93;101769.06;10462213;28;20083;-69
2022/10/22 07:59:59;;;;;;;6.13;4.78;;;;;;;11.20;57.78;101622.59;10462493;28;20029;-69
2022/10/22 08:05:00;;;;;;;5.70;4.30;;;;;;;11.43;57.83;101673.69;10462004;28;20370;-69
2022/10/22 08:10:01;;;;;;;5.35;4.28;;;;;;;11.90;57.10;101751.00;10461553;28;20127;-69
2022/10/22 08:15:02;;;;;;;6.80;4.25;;;;;;;11.58;56.86;101682.09;10461222;28;20037;-69
2022/10/22 08:20:04;;;;;;;7.95;4.68;;;;;;;11.81;57.44;101765.97;10461253;28;20052;-69
2022/10/22 08:25:05;;;;;;;4.97;4.00;;;;;;;12.04;56.46;101760.38;10460807;28;20036;-69
2022/10/22 08:30:06;;;;;;;5.53;4.05;;;;;;;12.24;55.60;101755.84;10460766;28;20103;-69
2022/10/22 08:35:07;;;;;;;6.00;3.97;;;;;;;12.27;55.88;101729.75;10460073;28;20122;-69
2022/10/22 08:40:18;;;;;;;12.95;6.22;;;;;;;12.27;55.23;101699.59;10460311;28;20053;-69
2022/10/22 08:45:23;;;;;;;5.18;3.70;;;;;;;12.68;55.24;101737.44;10460015;28;20029;-69
2022/10/22 08:50:37;;;;;;;5.93;3.90;;;;;;;12.78;54.22;101763.06;10491755;28;20036;-69
2022/10/22 08:55:38;;;;;;;5.95;3.47;;;;;;;12.69;55.02;101745.31;10501260;28;20044;-69
2022/10/22 09:00:51;;;;;;;4.80;3.53;;;;;;;12.54;55.13;101682.81;10499932;28;20147;-69
2022/10/22 09:06:02;;;;;;;6.05;4.55;;;;;;;12.96;53.85;101740.94;10499687;28;20408;-69
2022/10/22 09:11:13;;;;;;;6.13;3.15;;;;;;;12.88;53.03;101699.00;10499869;28;20033;-69
2022/10/22 09:16:18;;;;;;;5.07;2.85;;;;;;;12.66;53.54;101625.63;10500364;28;20044;-68
2022/10/22 09:21:35;;;;;;;5.18;3.30;;;;;;;13.24;52.39;101713.22;10500001;28;20040;-69
2022/10/22 09:26:39;;;;;;;6.90;3.22;;;;;;;13.18;52.72;101705.81;10499946;28;20036;-68
2022/10/22 09:31:39;;;;;;;5.22;2.60;;;;;;;13.15;53.44;101726.63;10500211;28;20064;-69
2022/10/22 09:36:40;;;;;;;6.00;3.17;;;;;;;13.13;53.27;101689.47;10500272;28;20044;-69
2022/10/22 09:41:41;;;;;;;9.57;5.07;;;;;;;13.27;53.24;101712.13;10499374;28;20161;-69
2022/10/22 09:46:44;;;;;;;8.95;3.08;;;;;;;13.24;53.10;101704.38;10499057;28;20388;-69
2022/10/22 09:51:57;;;;;;;4.65;2.60;;;;;;;13.40;51.98;101698.38;10498011;28;20045;-69
2022/10/22 09:57:21;;;;;;;4.78;2.70;;;;;;;13.66;52.37;101699.28;10498900;28;20095;-68
2022/10/22 10:02:29;;;;;;;4.55;2.50;;;;;;;13.75;51.78;101692.16;10497547;28;20040;-68
2022/10/22 10:07:31;;;;;;;4.40;2.92;;;;;;;13.62;52.52;101663.22;10498361;28;20044;-68
2022/10/22 10:12:38;;;;;;;13.85;9.10;;;;;;;13.32;51.88;101586.25;10498232;28;20126;-69
2022/10/22 10:17:43;;;;;;;4.00;2.42;;;;;;;14.02;52.21;101661.78;10496845;28;20047;-71
2022/10/22 10:23:23;;;;;;;4.75;2.38;;;;;;;14.23;51.01;101672.09;10498135;28;20498;-69
2022/10/22 10:28:38;;;;;;;4.57;3.05;;;;;;;14.16;50.92;101666.53;10497564;28;20442;-69
2022/10/22 10:33:49;;;;;;;8.38;3.92;;;;;;;13.68;53.09;101664.41;10496535;28;20057;-69
2022/10/22 10:38:58;;;;;;;5.97;3.08;;;;;;;13.24;52.82;101665.19;10495910;28;20093;-69
2022/10/22 10:44:30;;;;;;;7.50;3.20;;;;;;;12.29;53.18;101530.63;10497171;28;20166;-70
2022/10/22 10:49:33;;;;;;;8.55;4.65;;;;;;;12.91;53.77;101671.22;10496786;28;20447;-69
2022/10/22 10:54:48;;;;;;;27.03;18.27;;;;;;;12.92;53.35;101657.75;10496024;28;20044;-69
2022/10/22 11:00:15;;;;;;;22.90;11.82;;;;;;;12.93;53.39;101656.72;10495564;28;20128;-69
2022/10/22 11:05:21;;;;;;;39.10;23.25;;;;;;;12.92;53.04;101655.06;10495796;28;20468;-69
2022/10/22 11:10:45;;;;;;;64.60;31.55;;;;;;;13.24;53.11;101651.00;10495163;28;20040;-69
2022/10/22 11:15:55;;;;;;;10.70;5.35;;;;;;;13.19;51.78;101643.50;10495621;28;20044;-69
2022/10/22 11:21:01;;;;;;;15.48;10.63;;;;;;;13.26;52.73;101635.72;10489733;28;20443;-72
2022/10/22 11:26:06;;;;;;;7.38;5.07;;;;;;;13.35;52.04;101624.13;10455011;28;20041;-73
2022/10/22 11:31:15;;;;;;;8.07;3.67;;;;;;;13.48;52.42;101629.06;10475070;28;20068;-72
2022/10/22 11:36:21;;;;;;;8.50;4.07;;;;;;;13.65;51.55;101630.03;10458240;28;20053;-71
2022/10/22 11:41:26;;;;;;;7.68;3.40;;;;;;;13.46;52.16;101602.53;10484752;28;20051;-72
2022/10/22 11:46:53;;;;;;;7.82;3.42;;;;;;;13.61;51.81;101623.28;10476808;28;20040;-71
2022/10/22 11:52:24;;;;;;;25.30;14.60;;;;;;;13.64;50.89;101626.50;10472095;28;20496;-71
2022/10/22 11:57:43;;;;;;;8.38;5.30;;;;;;;13.26;51.86;101609.03;10451542;28;20087;-70
2022/10/22 12:02:44;;;;;;;32.53;15.77;;;;;;;13.10;53.84;101625.72;10453420;28;20408;-70
2022/10/22 12:07:51;;;;;;;11.02;6.80;;;;;;;12.98;52.65;101627.78;10453143;28;20120;-70
2022/10/22 12:13:10;;;;;;;7.63;4.03;;;;;;;12.86;53.19;101622.81;10453497;28;20048;-71
2022/10/22 12:18:12;;;;;;;31.13;19.67;;;;;;;12.76;53.68;101623.72;10453567;28;20128;-71
2022/10/22 12:23:13;;;;;;;22.58;15.90;;;;;;;12.76;54.22;101614.88;10454074;28;20048;-71
2022/10/22 12:28:15;;;;;;;28.00;19.77;;;;;;;12.58;54.06;101596.19;10460732;28;20041;-71
2022/10/22 12:33:24;;;;;;;23.60;16.60;;;;;;;12.72;53.71;101617.03;10461097;28;20507;-71
2022/10/22 12:38:25;;;;;;;42.63;30.70;;;;;;;12.53;54.38;101612.66;10462072;28;20059;-71
2022/10/22 12:43:28;;;;;;;32.22;17.02;;;;;;;12.46;54.72;101616.06;10460182;28;20040;-71
2022/10/22 12:48:33;;;;;;;37.38;24.20;;;;;;;12.38;54.89;101624.78;10460246;28;20079;-71
2022/10/22 12:53:42;;;;;;;37.08;22.55;;;;;;;11.78;54.56;101516.00;10459779;28;20139;-72
2022/10/22 12:58:50;;;;;;;20.83;11.20;;;;;;;12.42;54.19;101623.53;10460558;28;20071;-71
2022/10/22 13:04:11;;;;;;;11.15;6.20;;;;;;;12.45;55.10;101625.06;10459319;28;20045;-71
2022/10/22 13:09:21;;;;;;;8.60;3.60;;;;;;;11.90;55.23;101551.28;10459395;28;20051;-73
2022/10/22 13:14:27;;;;;;;11.30;4.72;;;;;;;12.27;55.02;101625.00;10460065;28;20130;-71
2022/10/22 13:19:40;;;;;;;7.22;3.35;;;;;;;12.17;55.11;101622.38;10477488;28;20043;-71
2022/10/22 13:24:49;;;;;;;8.23;3.92;;;;;;;12.02;55.74;101613.19;10496788;28;20040;-68
2022/10/22 13:29:50;;;;;;;11.40;2.90;;;;;;;11.84;56.24;101615.72;10473845;28;20060;-67
2022/10/22 13:34:51;;;;;;;5.72;2.75;;;;;;;11.17;57.54;101527.97;10480317;28;20037;-66
2022/10/22 13:39:52;;;;;;;12.77;3.15;;;;;;;11.14;58.42;101554.00;10477867;28;20131;-68
2022/10/22 13:44:52;;;;;;;9.02;2.88;;;;;;;11.30;59.92;101612.78;10498019;28;20127;-68
2022/10/22 13:50:00;;;;;;;67.32;6.97;;;;;;;10.91;62.67;101591.50;10485817;28;20041;-68
2022/10/22 13:55:02;;;;;;;65.00;8.07;;;;;;;10.87;62.89;101637.97;10457595;28;20044;-68
2022/10/22 14:00:03;;;;;;;45.92;8.40;;;;;;;10.61;64.37;101626.16;10456866;28;20408;-68
2022/10/22 14:05:08;;;;;;;43.83;9.30;;;;;;;10.27;65.74;101623.84;10488830;28;20039;-68
2022/10/22 14:10:23;;;;;;;38.58;9.82;;;;;;;10.03;69.65;101610.88;10498607;28;20048;-68
2022/10/22 14:15:27;;;;;;;30.13;9.10;;;;;;;9.85;68.38;101639.00;10498271;28;20573;-68
2022/10/22 14:20:30;;;;;;;36.88;9.07;;;;;;;9.17;69.24;101551.06;10497693;28;20049;-67
2022/10/22 14:25:31;;;;;;;48.58;8.57;;;;;;;9.36;69.80;101639.53;10489522;28;20511;-67
2022/10/22 14:30:32;;;;;;;49.35;8.65;;;;;;;8.96;70.61;101620.78;10496880;28;20088;-67
2022/10/22 14:35:32;;;;;;;79.18;13.00;;;;;;;8.59;71.64;101617.66;10496879;28;20044;-67
2022/10/22 14:40:33;;;;;;;40.35;10.68;;;;;;;8.57;72.52;101641.59;10496586;28;20036;-67
2022/10/22 14:45:34;;;;;;;22.00;9.10;;;;;;;8.27;73.10;101641.38;10496977;28;20048;-68
2022/10/22 14:50:35;;;;;;;33.38;9.90;;;;;;;7.63;73.76;101565.22;10496694;28;20032;-68
2022/10/22 14:55:35;;;;;;;27.02;9.65;;;;;;;7.62;74.72;101574.13;10496033;28;20048;-68
2022/10/22 15:00:37;;;;;;;34.83;11.25;;;;;;;7.99;75.03;101656.78;10496521;28;20036;-68
2022/10/22 15:05:45;;;;;;;30.17;14.50;;;;;;;7.24;78.41;101570.81;10496858;28;20139;-68
2022/10/22 15:10:55;;;;;;;43.28;18.05;;;;;;;7.57;76.26;101655.59;10495202;28;20032;-68
2022/10/22 15:15:57;;;;;;;70.53;31.40;;;;;;;7.47;77.08;101673.97;10490781;28;20036;-69
2022/10/22 15:21:01;;;;;;;67.63;31.73;;;;;;;7.31;77.45;101672.47;10462240;28;20045;-69
2022/10/22 15:26:01;;;;;;;61.45;28.98;;;;;;;7.10;77.62;101666.13;10452862;28;20048;-71
2022/10/22 15:31:03;;;;;;;71.68;28.38;;;;;;;7.09;78.27;101697.00;10452679;28;20507;-68
2022/10/22 15:36:14;;;;;;;66.75;27.90;;;;;;;6.95;81.81;101676.03;10456702;28;20458;-69
2022/10/22 15:41:15;;;;;;;51.40;22.45;;;;;;;6.95;79.64;101688.41;10488405;28;20094;-69
2022/10/22 15:46:18;;;;;;;46.90;20.08;;;;;;;6.25;79.67;101597.47;10492483;28;20033;-68
2022/10/22 15:51:19;;;;;;;46.55;19.40;;;;;;;5.91;78.98;101556.75;10494219;28;20047;-69
2022/10/22 15:56:21;;;;;;;49.28;23.25;;;;;;;6.68;79.54;101707.91;10483649;28;20037;-69
2022/10/22 16:01:22;;;;;;;37.60;18.85;;;;;;;6.61;79.79;101709.28;10502869;28;20068;-68
2022/10/22 16:06:23;;;;;;;33.40;16.13;;;;;;;6.52;80.08;101704.66;10483999;28;20131;-69
2022/10/22 16:11:25;;;;;;;35.17;16.60;;;;;;;5.98;80.86;101646.88;10478869;28;20476;-68
2022/10/22 16:16:28;;;;;;;44.30;16.92;;;;;;;6.27;81.50;101703.75;10476727;28;20039;-69
2022/10/22 16:21:29;;;;;;;40.47;15.68;;;;;;;6.18;81.04;101691.19;10478787;28;20063;-69
2022/10/22 16:26:30;;;;;;;56.10;16.20;;;;;;;6.10;81.52;101688.22;10478214;28;20113;-68
2022/10/22 16:31:31;;;;;;;37.58;15.23;;;;;;;6.09;81.59;101682.13;10478895;28;20048;-68
2022/10/22 16:36:32;;;;;;;26.83;12.43;;;;;;;5.59;82.19;101603.81;10479189;28;20189;-70
2022/10/22 16:41:34;;;;;;;16.05;10.43;;;;;;;5.76;82.02;101640.41;10481489;28;20072;-68
2022/10/22 16:46:38;;;;;;;24.23;11.43;;;;;;;5.93;82.65;101674.44;10459022;28;20036;-68
2022/10/22 16:51:39;;;;;;;19.75;10.55;;;;;;;5.34;82.15;101589.66;10459250;28;20041;-68
2022/10/22 16:56:40;;;;;;;20.40;8.98;;;;;;;5.02;82.59;101547.88;10468278;28;20139;-68
2022/10/22 17:01:41;;;;;;;22.63;9.88;;;;;;;5.64;82.99;101681.63;10458225;28;20048;-69
2022/10/22 17:06:42;;;;;;;16.08;7.70;;;;;;;4.92;82.71;101560.00;10459196;28;20041;-70
2022/10/22 17:11:43;;;;;;;22.42;8.25;;;;;;;5.50;82.91;101671.16;10468646;28;20052;-68
2022/10/22 17:16:44;;;;;;;11.60;6.80;;;;;;;4.94;83.26;101576.53;10468648;28;20068;-67
2022/10/22 17:21:45;;;;;;;17.70;7.53;;;;;;;5.12;83.75;101621.03;10457671;28;20595;-68
2022/10/22 17:26:46;;;;;;;21.35;8.57;;;;;;;5.39;83.70;101665.78;10459068;28;20094;-67
2022/10/22 17:31:47;;;;;;;16.80;7.20;;;;;;;4.77;84.23;101568.91;10465495;28;20061;-67
2022/10/22 17:36:48;;;;;;;18.83;7.45;;;;;;;5.31;84.60;101662.81;10470548;28;20040;-68
2022/10/22 17:41:49;;;;;;;26.95;9.68;;;;;;;5.28;84.47;101674.41;10490744;28;20044;-68
2022/10/22 17:46:49;;;;;;;25.88;10.30;;;;;;;5.17;84.33;101661.91;10495704;28;20044;-68
2022/10/22 17:51:50;;;;;;;24.77;10.23;;;;;;;5.16;85.20;101665.50;10489589;28;20040;-67
2022/10/22 17:56:51;;;;;;;24.10;10.38;;;;;;;4.98;84.57;101635.94;10495052;28;20102;-68
2022/10/22 18:01:52;;;;;;;30.45;10.00;;;;;;;5.02;84.87;101642.69;10456630;28;20040;-68
2022/10/22 18:06:53;;;;;;;35.70;13.32;;;;;;;4.59;85.13;101576.19;10458775;28;20045;-68
2022/10/22 18:11:54;;;;;;;31.83;12.88;;;;;;;5.10;85.29;101659.81;10456382;28;20115;-68
2022/10/22 18:16:55;;;;;;;28.83;11.32;;;;;;;4.78;85.31;101610.91;10456474;28;20511;-68
2022/10/22 18:21:56;;;;;;;48.90;19.00;;;;;;;5.04;85.45;101656.63;10456185;28;20128;-68
2022/10/22 18:26:57;;;;;;;35.80;16.13;;;;;;;4.87;85.58;101667.38;10457115;28;20045;-68
2022/10/22 18:31:57;;;;;;;67.10;33.80;;;;;;;4.63;86.76;101646.13;10455978;28;20622;-68
2022/10/22 18:36:58;;;;;;;62.22;26.75;;;;;;;4.47;86.85;101646.25;10455632;28;20045;-68
2022/10/22 18:42:04;;;;;;;135.90;55.05;;;;;;;4.09;87.04;101601.28;10489895;28;20044;-68
2022/10/22 18:47:07;;;;;;;381.00;166.82;;;;;;;3.73;87.75;101568.44;10496960;28;20033;-69
2022/10/22 18:52:08;;;;;;;290.65;120.88;;;;;;;4.21;88.20;101668.06;10495515;28;20047;-68
2022/10/22 18:57:08;;;;;;;132.75;52.03;;;;;;;4.18;88.86;101678.78;10464356;28;20400;-68
2022/10/22 19:02:09;;;;;;;93.75;39.92;;;;;;;3.65;89.16;101584.69;10455532;28;20041;-68
2022/10/22 19:07:11;;;;;;;77.95;35.08;;;;;;;4.10;89.40;101672.22;10454760;28;20044;-68
2022/10/22 19:12:13;;;;;;;64.43;26.70;;;;;;;3.57;89.55;101581.66;10454484;28;20076;-67
2022/10/22 19:17:14;;;;;;;55.42;24.52;;;;;;;4.04;89.47;101675.22;10477245;28;20059;-67
2022/10/22 19:22:15;;;;;;;145.70;68.50;;;;;;;4.09;89.96;101670.50;10495931;28;20047;-68
2022/10/22 19:27:17;;;;;;;221.15;107.03;;;;;;;3.96;89.80;101624.88;10495091;28;20032;-68
2022/10/22 19:32:18;;;;;;;361.20;179.02;;;;;;;4.16;89.20;101671.00;10495948;28;20466;-69
2022/10/22 19:37:19;;;;;;;325.70;162.38;;;;;;;3.99;89.53;101652.75;10493883;28;20143;-67
2022/10/22 19:42:20;;;;;;;231.25;116.22;;;;;;;4.19;90.00;101667.31;10494352;28;20127;-68
2022/10/22 19:47:21;;;;;;;177.68;84.13;;;;;;;4.12;89.85;101666.84;10493538;28;20069;-69
2022/10/22 19:52:21;;;;;;;110.45;51.47;;;;;;;3.63;90.07;101614.63;10492724;28;20036;-69
2022/10/22 19:57:22;;;;;;;100.07;45.42;;;;;;;3.64;90.83;101627.66;10492494;28;20067;-69
2022/10/22 20:02:24;;;;;;;101.53;51.05;;;;;;;3.12;90.06;101527.50;10491257;28;20040;-69
2022/10/22 20:07:27;;;;;;;50.45;26.50;;;;;;;3.75;90.71;101626.19;10492763;28;20037;-68
2022/10/22 20:12:28;;;;;;;47.88;26.58;;;;;;;3.81;90.76;101638.94;10492939;28;20515;-69
2022/10/22 20:17:29;;;;;;;316.63;182.65;;;;;;;3.67;90.61;101602.97;10492253;28;20064;-69
2022/10/22 20:22:30;;;;;;;206.13;107.90;;;;;;;3.94;90.34;101642.50;10493073;28;20040;-68
2022/10/22 20:27:30;;;;;;;101.15;53.83;;;;;;;3.74;90.22;101609.56;10492219;28;20044;-69
2022/10/22 20:32:32;;;;;;;57.22;33.08;;;;;;;3.67;90.75;101622.22;10492815;28;20500;-69
2022/10/22 20:37:33;;;;;;;61.92;35.42;;;;;;;3.09;91.37;101549.50;10492913;28;20519;-69
2022/10/22 20:42:34;;;;;;;70.68;39.78;;;;;;;3.55;91.08;101630.00;10487808;28;20040;-69
2022/10/22 20:47:36;;;;;;;231.73;128.63;;;;;;;3.53;91.59;101624.84;10486961;28;20041;-68
2022/10/22 20:52:37;;;;;;;198.45;110.53;;;;;;;3.37;91.56;101609.13;10473889;28;20089;-68
2022/10/22 20:57:38;;;;;;;141.60;78.80;;;;;;;3.46;92.08;101627.91;10465800;28;20516;-69
2022/10/22 21:02:39;;;;;;;95.35;46.72;;;;;;;3.32;91.88;101623.47;10459796;28;20122;-68
2022/10/22 21:07:40;;;;;;;46.88;24.85;;;;;;;3.41;91.83;101633.41;10458321;28;20041;-68
2022/10/22 21:12:40;;;;;;;26.92;14.25;;;;;;;2.65;91.66;101526.69;10459888;28;20044;-68
2022/10/22 21:17:41;;;;;;;31.80;15.32;;;;;;;3.09;92.15;101604.66;10459433;28;20111;-68
2022/10/22 21:22:42;;;;;;;28.75;13.18;;;;;;;3.25;92.14;101622.13;10458641;28;20047;-69
2022/10/22 21:27:43;;;;;;;33.80;18.00;;;;;;;3.14;91.50;101610.50;10459158;28;20064;-68
2022/10/22 21:32:43;;;;;;;53.70;19.52;;;;;;;3.20;90.94;101604.00;10458782;28;20057;-68
2022/10/22 21:37:44;;;;;;;34.13;18.13;;;;;;;3.24;90.64;101616.03;10457149;28;20159;-68
2022/10/22 21:42:45;;;;;;;30.42;18.17;;;;;;;3.02;91.01;101577.06;10457561;28;20132;-68
2022/10/22 21:47:46;;;;;;;27.10;14.57;;;;;;;3.06;90.55;101581.19;10458470;28;20041;-68
2022/10/22 21:52:47;;;;;;;31.35;15.40;;;;;;;3.27;90.35;101602.72;10458497;28;20071;-68
2022/10/22 21:57:48;;;;;;;36.03;15.43;;;;;;;2.95;90.43;101547.69;10458062;28;20393;-68
2022/10/22 22:02:48;;;;;;;24.40;14.13;;;;;;;3.20;90.27;101599.63;10457256;28;20389;-70
2022/10/22 22:07:49;;;;;;;21.27;14.38;;;;;;;3.05;91.37;101584.78;10457690;28;20362;-68
2022/10/22 22:12:51;;;;;;;24.63;15.05;;;;;;;3.08;91.59;101596.84;10456506;28;20504;-68
2022/10/22 22:17:51;;;;;;;22.10;14.43;;;;;;;2.51;91.05;101505.63;10457399;28;20593;-68
2022/10/22 22:22:52;;;;;;;25.67;17.23;;;;;;;2.86;90.21;101576.25;10456285;28;20090;-68
2022/10/22 22:27:53;;;;;;;45.45;18.50;;;;;;;2.94;89.94;101582.75;10457362;28;20041;-68
2022/10/22 22:32:54;;;;;;;29.15;17.98;;;;;;;2.86;90.53;101563.13;10456572;28;20060;-68
2022/10/22 22:37:54;;;;;;;30.10;15.90;;;;;;;2.33;90.47;101486.53;10455499;28;20493;-68
2022/10/22 22:42:55;;;;;;;26.40;13.77;;;;;;;2.76;90.40;101560.19;10455693;28;20041;-68
2022/10/22 22:47:56;;;;;;;16.77;12.43;;;;;;;2.41;90.01;101505.31;10456034;28;20381;-68
2022/10/22 22:52:57;;;;;;;22.65;12.68;;;;;;;2.80;90.15;101563.47;10455518;28;20033;-68
2022/10/22 22:57:57;;;;;;;18.95;11.18;;;;;;;2.83;90.40;101576.44;10455405;28;20044;-68
2022/10/22 23:02:58;;;;;;;20.88;11.63;;;;;;;2.84;90.17;101568.47;10455452;28;20520;-68
2022/10/22 23:07:59;;;;;;;20.40;12.00;;;;;;;2.91;90.21;101561.09;10455579;28;20409;-68
2022/10/22 23:13:00;;;;;;;19.35;12.27;;;;;;;2.97;90.76;101561.56;10454866;28;20040;-68